Terminal Aerodrome Forecast
Issued by NWS

Home | Current Version | Previous Version | Text Only | Print | Product List | Glossary On
Versions: 1 2 3 4 5 6 7 8 9 10 11 12 13 14 15 16
176
FTUS45 KRIW 251128
TAFWRL
TAF
KWRL 251128Z 2512/2612 VRB05KT P6SM VCSH SCT016 OVC025
     FM251600 VRB05KT P6SM -RA SCT015 OVC022
     FM252000 VRB05KT P6SM VCSH SCT022 OVC040
     FM260000 VRB05KT P6SM SCT035 OVC050
     FM260800 VRB04KT P6SM VCFG SCT060=

USA.gov is the U.S. government's official web portal to all federal, state and local government web resources and services.